sensor_id;sensor_type;location;lat;lon;timestamp;P1;durP1;ratioP1;P2;durP2;ratioP2
19101;SDS011;9683;49.028;12.064;2024-02-14T00:02:12;667.10;;;121.85;;
19101;SDS011;9683;49.028;12.064;2024-02-14T00:04:38;677.13;;;131.02;;
19101;SDS011;9683;49.028;12.064;2024-02-14T00:07:04;694.53;;;143.95;;
19101;SDS011;9683;49.028;12.064;2024-02-14T00:09:32;747.20;;;153.57;;
19101;SDS011;9683;49.028;12.064;2024-02-14T00:11:58;687.80;;;134.20;;
19101;SDS011;9683;49.028;12.064;2024-02-14T00:14:25;657.38;;;121.85;;
19101;SDS011;9683;49.028;12.064;2024-02-14T00:16:51;642.50;;;121.72;;
19101;SDS011;9683;49.028;12.064;2024-02-14T00:19:17;670.60;;;124.15;;
19101;SDS011;9683;49.028;12.064;2024-02-14T00:21:44;632.55;;;119.40;;
19101;SDS011;9683;49.028;12.064;2024-02-14T00:24:10;602.00;;;113.63;;
19101;SDS011;9683;49.028;12.064;2024-02-14T00:26:38;609.22;;;107.95;;
19101;SDS011;9683;49.028;12.064;2024-02-14T00:29:05;675.35;;;123.60;;
19101;SDS011;9683;49.028;12.064;2024-02-14T00:31:31;661.35;;;121.15;;
19101;SDS011;9683;49.028;12.064;2024-02-14T00:33:58;680.42;;;127.10;;
19101;SDS011;9683;49.028;12.064;2024-02-14T00:36:24;341.00;;;23.13;;
19101;SDS011;9683;49.028;12.064;2024-02-14T00:38:51;430.17;;;34.50;;
19101;SDS011;9683;49.028;12.064;2024-02-14T00:41:17;393.30;;;27.52;;
19101;SDS011;9683;49.028;12.064;2024-02-14T00:43:45;382.83;;;26.42;;
19101;SDS011;9683;49.028;12.064;2024-02-14T00:46:15;334.98;;;23.10;;
19101;SDS011;9683;49.028;12.064;2024-02-14T00:48:41;361.08;;;26.55;;
19101;SDS011;9683;49.028;12.064;2024-02-14T00:51:07;357.80;;;24.40;;
19101;SDS011;9683;49.028;12.064;2024-02-14T00:53:34;344.35;;;25.23;;
19101;SDS011;9683;49.028;12.064;2024-02-14T00:56:00;359.65;;;25.73;;
19101;SDS011;9683;49.028;12.064;2024-02-14T00:58:27;308.05;;;21.23;;
19101;SDS011;9683;49.028;12.064;2024-02-14T01:00:55;335.70;;;24.30;;
19101;SDS011;9683;49.028;12.064;2024-02-14T01:03:21;330.23;;;30.50;;
19101;SDS011;9683;49.028;12.064;2024-02-14T01:05:47;301.73;;;22.17;;
19101;SDS011;9683;49.028;12.064;2024-02-14T01:08:14;344.40;;;24.08;;
19101;SDS011;9683;49.028;12.064;2024-02-14T01:10:40;337.67;;;24.67;;
19101;SDS011;9683;49.028;12.064;2024-02-14T01:13:06;350.05;;;23.92;;
19101;SDS011;9683;49.028;12.064;2024-02-14T01:15:33;371.58;;;24.35;;
19101;SDS011;9683;49.028;12.064;2024-02-14T01:18:01;330.35;;;21.30;;
19101;SDS011;9683;49.028;12.064;2024-02-14T01:20:27;303.70;;;19.67;;
19101;SDS011;9683;49.028;12.064;2024-02-14T01:22:54;379.23;;;25.65;;
19101;SDS011;9683;49.028;12.064;2024-02-14T01:25:21;353.95;;;23.35;;
19101;SDS011;9683;49.028;12.064;2024-02-14T01:27:47;350.67;;;22.95;;
19101;SDS011;9683;49.028;12.064;2024-02-14T01:30:14;333.38;;;22.05;;
19101;SDS011;9683;49.028;12.064;2024-02-14T01:32:41;398.27;;;25.45;;
19101;SDS011;9683;49.028;12.064;2024-02-14T01:35:09;348.70;;;23.02;;
19101;SDS011;9683;49.028;12.064;2024-02-14T01:37:35;335.77;;;22.25;;
19101;SDS011;9683;49.028;12.064;2024-02-14T01:40:02;330.27;;;21.65;;
19101;SDS011;9683;49.028;12.064;2024-02-14T01:42:28;341.42;;;21.90;;
19101;SDS011;9683;49.028;12.064;2024-02-14T01:44:54;350.17;;;22.30;;
19101;SDS011;9683;49.028;12.064;2024-02-14T01:47:21;347.85;;;22.38;;
19101;SDS011;9683;49.028;12.064;2024-02-14T01:49:47;312.42;;;20.08;;
19101;SDS011;9683;49.028;12.064;2024-02-14T01:52:15;320.15;;;21.65;;
19101;SDS011;9683;49.028;12.064;2024-02-14T01:54:42;371.52;;;25.60;;
19101;SDS011;9683;49.028;12.064;2024-02-14T01:57:08;402.90;;;25.50;;
19101;SDS011;9683;49.028;12.064;2024-02-14T01:59:35;320.27;;;21.90;;
19101;SDS011;9683;49.028;12.064;2024-02-14T02:02:02;310.50;;;21.13;;
19101;SDS011;9683;49.028;12.064;2024-02-14T02:04:28;341.83;;;23.25;;
19101;SDS011;9683;49.028;12.064;2024-02-14T02:06:55;353.38;;;25.92;;
19101;SDS011;9683;49.028;12.064;2024-02-14T02:09:23;343.85;;;24.08;;
19101;SDS011;9683;49.028;12.064;2024-02-14T02:11:49;339.45;;;23.05;;
19101;SDS011;9683;49.028;12.064;2024-02-14T02:14:16;318.08;;;22.25;;
19101;SDS011;9683;49.028;12.064;2024-02-14T02:16:43;316.25;;;20.65;;
19101;SDS011;9683;49.028;12.064;2024-02-14T02:19:09;389.60;;;26.20;;
19101;SDS011;9683;49.028;12.064;2024-02-14T02:21:36;341.90;;;22.23;;
19101;SDS011;9683;49.028;12.064;2024-02-14T02:24:04;395.65;;;26.80;;
19101;SDS011;9683;49.028;12.064;2024-02-14T02:26:31;372.92;;;25.48;;
19101;SDS011;9683;49.028;12.064;2024-02-14T02:28:58;434.67;;;33.47;;
19101;SDS011;9683;49.028;12.064;2024-02-14T02:31:24;348.20;;;23.23;;
19101;SDS011;9683;49.028;12.064;2024-02-14T02:33:51;375.88;;;25.33;;
19101;SDS011;9683;49.028;12.064;2024-02-14T02:36:17;308.05;;;20.65;;
19101;SDS011;9683;49.028;12.064;2024-02-14T02:38:44;353.02;;;25.52;;
19101;SDS011;9683;49.028;12.064;2024-02-14T02:41:11;372.27;;;26.40;;
19101;SDS011;9683;49.028;12.064;2024-02-14T02:43:38;340.15;;;23.00;;
19101;SDS011;9683;49.028;12.064;2024-02-14T02:46:04;409.73;;;28.50;;
19101;SDS011;9683;49.028;12.064;2024-02-14T02:48:30;353.65;;;24.13;;
19101;SDS011;9683;49.028;12.064;2024-02-14T02:50:57;352.40;;;24.65;;
19101;SDS011;9683;49.028;12.064;2024-02-14T02:53:23;353.58;;;24.13;;
19101;SDS011;9683;49.028;12.064;2024-02-14T02:55:49;341.98;;;23.88;;
19101;SDS011;9683;49.028;12.064;2024-02-14T02:58:20;339.83;;;22.52;;
19101;SDS011;9683;49.028;12.064;2024-02-14T03:00:47;354.25;;;22.40;;
19101;SDS011;9683;49.028;12.064;2024-02-14T03:03:14;339.02;;;24.15;;
19101;SDS011;9683;49.028;12.064;2024-02-14T03:05:41;323.92;;;21.83;;
19101;SDS011;9683;49.028;12.064;2024-02-14T03:08:09;375.48;;;25.15;;
19101;SDS011;9683;49.028;12.064;2024-02-14T03:10:38;332.65;;;21.75;;
19101;SDS011;9683;49.028;12.064;2024-02-14T03:13:05;391.58;;;26.52;;
19101;SDS011;9683;49.028;12.064;2024-02-14T03:15:34;375.10;;;25.27;;
19101;SDS011;9683;49.028;12.064;2024-02-14T03:18:01;302.25;;;20.95;;
19101;SDS011;9683;49.028;12.064;2024-02-14T03:20:33;313.88;;;20.60;;
19101;SDS011;9683;49.028;12.064;2024-02-14T03:23:00;313.73;;;20.38;;
19101;SDS011;9683;49.028;12.064;2024-02-14T03:25:26;314.75;;;20.85;;
19101;SDS011;9683;49.028;12.064;2024-02-14T03:27:52;353.60;;;22.63;;
19101;SDS011;9683;49.028;12.064;2024-02-14T03:30:19;399.52;;;27.15;;
19101;SDS011;9683;49.028;12.064;2024-02-14T03:32:46;363.15;;;24.35;;
19101;SDS011;9683;49.028;12.064;2024-02-14T03:35:13;326.98;;;22.25;;
19101;SDS011;9683;49.028;12.064;2024-02-14T03:37:40;357.05;;;23.95;;
19101;SDS011;9683;49.028;12.064;2024-02-14T03:40:07;325.10;;;21.10;;
19101;SDS011;9683;49.028;12.064;2024-02-14T03:42:34;374.55;;;24.75;;
19101;SDS011;9683;49.028;12.064;2024-02-14T03:45:00;372.38;;;25.65;;
19101;SDS011;9683;49.028;12.064;2024-02-14T03:47:30;351.60;;;23.90;;
19101;SDS011;9683;49.028;12.064;2024-02-14T03:49:59;360.92;;;24.92;;
19101;SDS011;9683;49.028;12.064;2024-02-14T03:52:25;364.88;;;25.30;;
19101;SDS011;9683;49.028;12.064;2024-02-14T03:54:51;385.10;;;26.25;;
19101;SDS011;9683;49.028;12.064;2024-02-14T03:57:18;352.02;;;23.77;;
19101;SDS011;9683;49.028;12.064;2024-02-14T03:59:44;368.25;;;24.60;;
19101;SDS011;9683;49.028;12.064;2024-02-14T04:02:10;375.40;;;27.38;;
19101;SDS011;9683;49.028;12.064;2024-02-14T04:04:37;288.33;;;21.33;;
19101;SDS011;9683;49.028;12.064;2024-02-14T04:07:05;188.13;;;14.88;;
19101;SDS011;9683;49.028;12.064;2024-02-14T04:09:32;261.48;;;20.15;;
19101;SDS011;9683;49.028;12.064;2024-02-14T04:11:58;294.20;;;21.85;;
19101;SDS011;9683;49.028;12.064;2024-02-14T04:14:25;334.80;;;24.88;;
19101;SDS011;9683;49.028;12.064;2024-02-14T04:16:51;361.80;;;26.48;;
19101;SDS011;9683;49.028;12.064;2024-02-14T04:19:17;395.92;;;28.67;;
19101;SDS011;9683;49.028;12.064;2024-02-14T04:21:44;350.83;;;25.35;;
19101;SDS011;9683;49.028;12.064;2024-02-14T04:24:11;597.42;;;53.40;;
19101;SDS011;9683;49.028;12.064;2024-02-14T04:26:38;367.73;;;26.10;;
19101;SDS011;9683;49.028;12.064;2024-02-14T04:29:04;414.25;;;31.05;;
19101;SDS011;9683;49.028;12.064;2024-02-14T04:31:30;319.85;;;23.75;;
19101;SDS011;9683;49.028;12.064;2024-02-14T04:33:57;373.92;;;27.48;;
19101;SDS011;9683;49.028;12.064;2024-02-14T04:36:23;334.80;;;25.17;;
19101;SDS011;9683;49.028;12.064;2024-02-14T04:38:50;387.30;;;28.35;;
19101;SDS011;9683;49.028;12.064;2024-02-14T04:41:18;368.98;;;27.35;;
19101;SDS011;9683;49.028;12.064;2024-02-14T04:43:44;335.73;;;25.42;;
19101;SDS011;9683;49.028;12.064;2024-02-14T04:46:11;347.40;;;25.70;;
19101;SDS011;9683;49.028;12.064;2024-02-14T04:48:37;377.83;;;28.80;;
19101;SDS011;9683;49.028;12.064;2024-02-14T04:51:04;235.20;;;19.85;;
19101;SDS011;9683;49.028;12.064;2024-02-14T04:53:31;293.48;;;22.98;;
19101;SDS011;9683;49.028;12.064;2024-02-14T04:55:57;356.85;;;25.88;;
19101;SDS011;9683;49.028;12.064;2024-02-14T04:58:25;345.58;;;25.13;;
19101;SDS011;9683;49.028;12.064;2024-02-14T05:00:52;371.90;;;26.15;;
19101;SDS011;9683;49.028;12.064;2024-02-14T05:03:19;407.77;;;28.85;;
19101;SDS011;9683;49.028;12.064;2024-02-14T05:05:46;368.92;;;25.48;;
19101;SDS011;9683;49.028;12.064;2024-02-14T05:08:12;380.05;;;25.58;;
19101;SDS011;9683;49.028;12.064;2024-02-14T05:10:38;405.17;;;27.90;;
19101;SDS011;9683;49.028;12.064;2024-02-14T05:13:05;352.23;;;24.80;;
19101;SDS011;9683;49.028;12.064;2024-02-14T05:15:33;388.95;;;26.73;;
19101;SDS011;9683;49.028;12.064;2024-02-14T05:18:00;369.15;;;25.85;;
19101;SDS011;9683;49.028;12.064;2024-02-14T05:20:26;375.33;;;26.20;;
19101;SDS011;9683;49.028;12.064;2024-02-14T05:22:52;452.27;;;32.47;;
19101;SDS011;9683;49.028;12.064;2024-02-14T05:25:19;314.30;;;22.23;;
19101;SDS011;9683;49.028;12.064;2024-02-14T05:27:45;378.65;;;25.98;;
19101;SDS011;9683;49.028;12.064;2024-02-14T05:30:12;366.92;;;26.10;;
19101;SDS011;9683;49.028;12.064;2024-02-14T05:32:40;340.83;;;22.98;;
19101;SDS011;9683;49.028;12.064;2024-02-14T05:35:07;315.80;;;21.58;;
19101;SDS011;9683;49.028;12.064;2024-02-14T05:37:34;216.90;;;16.23;;
19101;SDS011;9683;49.028;12.064;2024-02-14T05:40:02;359.67;;;25.33;;
19101;SDS011;9683;49.028;12.064;2024-02-14T05:42:31;354.63;;;23.60;;
19101;SDS011;9683;49.028;12.064;2024-02-14T05:44:59;370.13;;;25.73;;
19101;SDS011;9683;49.028;12.064;2024-02-14T05:47:28;369.75;;;25.55;;
19101;SDS011;9683;49.028;12.064;2024-02-14T05:49:56;426.30;;;33.67;;
19101;SDS011;9683;49.028;12.064;2024-02-14T05:52:22;341.77;;;23.20;;
19101;SDS011;9683;49.028;12.064;2024-02-14T05:54:49;365.08;;;25.25;;
19101;SDS011;9683;49.028;12.064;2024-02-14T05:57:15;392.33;;;27.23;;
19101;SDS011;9683;49.028;12.064;2024-02-14T05:59:41;386.08;;;26.70;;
19101;SDS011;9683;49.028;12.064;2024-02-14T06:02:08;350.52;;;23.60;;
19101;SDS011;9683;49.028;12.064;2024-02-14T06:04:35;302.55;;;22.35;;
19101;SDS011;9683;49.028;12.064;2024-02-14T06:07:02;346.20;;;23.95;;
19101;SDS011;9683;49.028;12.064;2024-02-14T06:09:30;373.38;;;27.05;;
19101;SDS011;9683;49.028;12.064;2024-02-14T06:11:57;382.92;;;28.67;;
19101;SDS011;9683;49.028;12.064;2024-02-14T06:14:23;357.67;;;23.98;;
19101;SDS011;9683;49.028;12.064;2024-02-14T06:16:49;384.83;;;26.25;;
19101;SDS011;9683;49.028;12.064;2024-02-14T06:19:16;357.98;;;25.00;;
19101;SDS011;9683;49.028;12.064;2024-02-14T06:21:42;349.38;;;24.55;;
19101;SDS011;9683;49.028;12.064;2024-02-14T06:24:10;296.67;;;21.70;;
19101;SDS011;9683;49.028;12.064;2024-02-14T06:26:38;356.48;;;25.05;;
19101;SDS011;9683;49.028;12.064;2024-02-14T06:29:04;337.45;;;22.75;;
19101;SDS011;9683;49.028;12.064;2024-02-14T06:31:31;320.90;;;22.83;;
19101;SDS011;9683;49.028;12.064;2024-02-14T06:33:57;376.38;;;25.85;;
19101;SDS011;9683;49.028;12.064;2024-02-14T06:36:23;102.22;;;8.68;;
19101;SDS011;9683;49.028;12.064;2024-02-14T06:38:50;223.20;;;21.35;;
19101;SDS011;9683;49.028;12.064;2024-02-14T06:41:18;115.35;;;9.38;;
19101;SDS011;9683;49.028;12.064;2024-02-14T06:43:45;396.15;;;25.70;;
19101;SDS011;9683;49.028;12.064;2024-02-14T06:46:11;374.95;;;24.83;;
19101;SDS011;9683;49.028;12.064;2024-02-14T06:48:38;354.88;;;23.35;;
19101;SDS011;9683;49.028;12.064;2024-02-14T06:51:05;303.88;;;20.38;;
19101;SDS011;9683;49.028;12.064;2024-02-14T06:53:32;381.67;;;25.65;;
19101;SDS011;9683;49.028;12.064;2024-02-14T06:55:58;348.00;;;24.30;;
19101;SDS011;9683;49.028;12.064;2024-02-14T06:58:26;344.05;;;23.83;;
19101;SDS011;9683;49.028;12.064;2024-02-14T07:00:53;351.42;;;23.73;;
19101;SDS011;9683;49.028;12.064;2024-02-14T07:03:19;367.77;;;24.42;;
19101;SDS011;9683;49.028;12.064;2024-02-14T07:05:46;314.17;;;21.70;;
19101;SDS011;9683;49.028;12.064;2024-02-14T07:08:12;268.00;;;18.88;;
19101;SDS011;9683;49.028;12.064;2024-02-14T07:10:39;372.90;;;24.25;;
19101;SDS011;9683;49.028;12.064;2024-02-14T07:13:06;349.52;;;22.85;;
19101;SDS011;9683;49.028;12.064;2024-02-14T07:15:33;342.52;;;22.30;;
19101;SDS011;9683;49.028;12.064;2024-02-14T07:18:00;361.90;;;24.33;;
19101;SDS011;9683;49.028;12.064;2024-02-14T07:20:26;360.10;;;24.58;;
19101;SDS011;9683;49.028;12.064;2024-02-14T07:22:53;351.20;;;23.88;;
19101;SDS011;9683;49.028;12.064;2024-02-14T07:25:21;349.80;;;23.75;;
19101;SDS011;9683;49.028;12.064;2024-02-14T07:27:48;516.70;;;39.13;;
19101;SDS011;9683;49.028;12.064;2024-02-14T07:30:15;382.88;;;27.23;;
19101;SDS011;9683;49.028;12.064;2024-02-14T07:32:42;361.90;;;24.40;;
19101;SDS011;9683;49.028;12.064;2024-02-14T07:35:09;317.85;;;22.50;;
19101;SDS011;9683;49.028;12.064;2024-02-14T07:37:36;363.98;;;24.67;;
19101;SDS011;9683;49.028;12.064;2024-02-14T07:40:03;392.30;;;27.30;;
19101;SDS011;9683;49.028;12.064;2024-02-14T07:42:30;347.30;;;25.30;;
19101;SDS011;9683;49.028;12.064;2024-02-14T07:44:56;424.80;;;29.73;;
19101;SDS011;9683;49.028;12.064;2024-02-14T07:47:23;361.05;;;24.92;;
19101;SDS011;9683;49.028;12.064;2024-02-14T07:49:50;311.17;;;22.38;;
19101;SDS011;9683;49.028;12.064;2024-02-14T07:52:18;344.38;;;24.23;;
19101;SDS011;9683;49.028;12.064;2024-02-14T07:54:44;342.27;;;23.60;;
19101;SDS011;9683;49.028;12.064;2024-02-14T07:57:10;317.67;;;22.65;;
19101;SDS011;9683;49.028;12.064;2024-02-14T07:59:37;356.27;;;24.45;;
19101;SDS011;9683;49.028;12.064;2024-02-14T08:02:03;368.13;;;26.73;;
19101;SDS011;9683;49.028;12.064;2024-02-14T08:04:30;358.95;;;25.83;;
19101;SDS011;9683;49.028;12.064;2024-02-14T08:06:57;336.77;;;24.75;;
19101;SDS011;9683;49.028;12.064;2024-02-14T08:09:24;354.17;;;24.90;;
19101;SDS011;9683;49.028;12.064;2024-02-14T08:11:50;377.70;;;27.90;;
19101;SDS011;9683;49.028;12.064;2024-02-14T08:14:18;375.92;;;28.17;;
19101;SDS011;9683;49.028;12.064;2024-02-14T08:16:44;354.23;;;26.05;;
19101;SDS011;9683;49.028;12.064;2024-02-14T08:19:11;363.45;;;26.75;;
19101;SDS011;9683;49.028;12.064;2024-02-14T08:21:37;385.38;;;28.83;;
19101;SDS011;9683;49.028;12.064;2024-02-14T08:24:05;214.32;;;17.10;;
19101;SDS011;9683;49.028;12.064;2024-02-14T08:26:31;182.15;;;15.45;;
19101;SDS011;9683;49.028;12.064;2024-02-14T08:28:57;275.95;;;22.70;;
19101;SDS011;9683;49.028;12.064;2024-02-14T08:31:25;271.63;;;21.58;;
19101;SDS011;9683;49.028;12.064;2024-02-14T08:33:51;328.58;;;25.42;;
19101;SDS011;9683;49.028;12.064;2024-02-14T08:36:18;358.95;;;27.88;;
19101;SDS011;9683;49.028;12.064;2024-02-14T08:38:45;338.30;;;24.65;;
19101;SDS011;9683;49.028;12.064;2024-02-14T08:41:13;322.98;;;23.45;;
19101;SDS011;9683;49.028;12.064;2024-02-14T08:43:39;334.50;;;23.88;;
19101;SDS011;9683;49.028;12.064;2024-02-14T08:46:08;369.30;;;26.60;;
19101;SDS011;9683;49.028;12.064;2024-02-14T08:48:35;364.00;;;26.65;;
19101;SDS011;9683;49.028;12.064;2024-02-14T08:51:05;386.13;;;28.23;;
19101;SDS011;9683;49.028;12.064;2024-02-14T08:53:32;369.95;;;25.33;;
19101;SDS011;9683;49.028;12.064;2024-02-14T08:55:58;362.40;;;26.45;;
19101;SDS011;9683;49.028;12.064;2024-02-14T08:58:26;390.08;;;27.30;;
19101;SDS011;9683;49.028;12.064;2024-02-14T09:00:52;370.33;;;26.98;;
19101;SDS011;9683;49.028;12.064;2024-02-14T09:03:19;407.05;;;30.00;;
19101;SDS011;9683;49.028;12.064;2024-02-14T09:05:45;379.45;;;27.52;;
19101;SDS011;9683;49.028;12.064;2024-02-14T09:08:12;349.92;;;24.55;;
19101;SDS011;9683;49.028;12.064;2024-02-14T09:10:39;386.45;;;26.92;;
19101;SDS011;9683;49.028;12.064;2024-02-14T09:13:05;368.13;;;25.35;;
19101;SDS011;9683;49.028;12.064;2024-02-14T09:15:34;376.92;;;26.40;;
19101;SDS011;9683;49.028;12.064;2024-02-14T09:18:00;395.30;;;28.33;;
19101;SDS011;9683;49.028;12.064;2024-02-14T09:20:28;367.27;;;25.52;;
19101;SDS011;9683;49.028;12.064;2024-02-14T09:22:55;318.88;;;21.20;;
19101;SDS011;9683;49.028;12.064;2024-02-14T09:25:21;335.70;;;23.77;;
19101;SDS011;9683;49.028;12.064;2024-02-14T09:27:48;350.65;;;24.45;;
19101;SDS011;9683;49.028;12.064;2024-02-14T09:30:14;370.60;;;25.02;;
19101;SDS011;9683;49.028;12.064;2024-02-14T09:32:44;343.30;;;23.20;;
19101;SDS011;9683;49.028;12.064;2024-02-14T09:35:10;305.02;;;22.00;;
19101;SDS011;9683;49.028;12.064;2024-02-14T09:37:36;338.40;;;22.80;;
19101;SDS011;9683;49.028;12.064;2024-02-14T09:40:04;358.70;;;24.63;;
19101;SDS011;9683;49.028;12.064;2024-02-14T09:42:32;346.17;;;23.92;;
19101;SDS011;9683;49.028;12.064;2024-02-14T09:45:01;369.45;;;27.15;;
19101;SDS011;9683;49.028;12.064;2024-02-14T09:47:28;347.88;;;25.45;;
19101;SDS011;9683;49.028;12.064;2024-02-14T09:49:59;327.70;;;24.75;;
19101;SDS011;9683;49.028;12.064;2024-02-14T09:52:25;366.27;;;27.35;;
19101;SDS011;9683;49.028;12.064;2024-02-14T09:54:52;339.67;;;23.67;;
19101;SDS011;9683;49.028;12.064;2024-02-14T09:57:18;353.63;;;24.70;;
19101;SDS011;9683;49.028;12.064;2024-02-14T09:59:45;392.23;;;25.65;;
19101;SDS011;9683;49.028;12.064;2024-02-14T10:02:12;428.50;;;29.92;;
19101;SDS011;9683;49.028;12.064;2024-02-14T10:04:38;378.23;;;24.30;;
19101;SDS011;9683;49.028;12.064;2024-02-14T10:07:06;360.58;;;24.70;;
19101;SDS011;9683;49.028;12.064;2024-02-14T10:09:39;399.05;;;28.20;;
19101;SDS011;9683;49.028;12.064;2024-02-14T10:12:06;330.27;;;22.58;;
19101;SDS011;9683;49.028;12.064;2024-02-14T10:14:34;350.13;;;23.58;;
19101;SDS011;9683;49.028;12.064;2024-02-14T10:17:00;320.73;;;21.80;;
19101;SDS011;9683;49.028;12.064;2024-02-14T10:19:28;386.95;;;25.90;;
19101;SDS011;9683;49.028;12.064;2024-02-14T10:21:57;376.33;;;24.85;;
19101;SDS011;9683;49.028;12.064;2024-02-14T10:24:26;349.97;;;22.80;;
19101;SDS011;9683;49.028;12.064;2024-02-14T10:26:53;374.03;;;25.17;;
19101;SDS011;9683;49.028;12.064;2024-02-14T10:29:22;416.52;;;29.58;;
19101;SDS011;9683;49.028;12.064;2024-02-14T10:31:49;351.70;;;22.90;;
19101;SDS011;9683;49.028;12.064;2024-02-14T10:34:15;335.77;;;21.00;;
19101;SDS011;9683;49.028;12.064;2024-02-14T10:36:42;330.63;;;21.37;;
19101;SDS011;9683;49.028;12.064;2024-02-14T10:39:10;324.90;;;21.67;;
19101;SDS011;9683;49.028;12.064;2024-02-14T10:41:38;377.47;;;24.77;;
19101;SDS011;9683;49.028;12.064;2024-02-14T10:44:04;385.30;;;24.80;;
19101;SDS011;9683;49.028;12.064;2024-02-14T10:46:31;354.57;;;22.27;;
19101;SDS011;9683;49.028;12.064;2024-02-14T10:48:59;382.57;;;29.03;;
19101;SDS011;9683;49.028;12.064;2024-02-14T10:51:30;361.55;;;24.63;;
19101;SDS011;9683;49.028;12.064;2024-02-14T10:53:56;373.52;;;23.50;;
19101;SDS011;9683;49.028;12.064;2024-02-14T10:56:24;343.87;;;23.83;;
19101;SDS011;9683;49.028;12.064;2024-02-14T10:58:55;362.13;;;23.10;;
19101;SDS011;9683;49.028;12.064;2024-02-14T11:01:22;376.50;;;24.50;;
19101;SDS011;9683;49.028;12.064;2024-02-14T11:03:50;333.83;;;21.40;;
19101;SDS011;9683;49.028;12.064;2024-02-14T11:06:16;347.90;;;23.30;;
19101;SDS011;9683;49.028;12.064;2024-02-14T11:08:53;338.23;;;21.40;;
19101;SDS011;9683;49.028;12.064;2024-02-14T11:11:21;366.98;;;24.63;;
19101;SDS011;9683;49.028;12.064;2024-02-14T11:13:51;366.30;;;24.48;;
19101;SDS011;9683;49.028;12.064;2024-02-14T11:16:19;413.88;;;52.97;;
19101;SDS011;9683;49.028;12.064;2024-02-14T11:18:48;440.50;;;36.70;;
19101;SDS011;9683;49.028;12.064;2024-02-14T11:21:15;370.45;;;25.40;;
19101;SDS011;9683;49.028;12.064;2024-02-14T11:23:52;347.20;;;23.95;;
19101;SDS011;9683;49.028;12.064;2024-02-14T11:26:18;333.40;;;21.87;;
19101;SDS011;9683;49.028;12.064;2024-02-14T11:28:45;298.27;;;18.52;;
19101;SDS011;9683;49.028;12.064;2024-02-14T11:31:16;290.90;;;19.13;;
19101;SDS011;9683;49.028;12.064;2024-02-14T11:33:44;312.73;;;19.63;;
19101;SDS011;9683;49.028;12.064;2024-02-14T11:36:11;361.23;;;23.13;;
19101;SDS011;9683;49.028;12.064;2024-02-14T11:38:40;359.40;;;22.35;;
19101;SDS011;9683;49.028;12.064;2024-02-14T11:41:06;330.87;;;20.57;;
19101;SDS011;9683;49.028;12.064;2024-02-14T11:43:34;341.43;;;21.73;;
19101;SDS011;9683;49.028;12.064;2024-02-14T11:46:00;385.03;;;25.43;;
19101;SDS011;9683;49.028;12.064;2024-02-14T11:48:29;329.27;;;21.20;;
19101;SDS011;9683;49.028;12.064;2024-02-14T11:50:58;339.30;;;22.17;;
19101;SDS011;9683;49.028;12.064;2024-02-14T11:53:24;343.43;;;21.60;;
19101;SDS011;9683;49.028;12.064;2024-02-14T11:55:53;357.33;;;21.83;;
19101;SDS011;9683;49.028;12.064;2024-02-14T11:58:19;656.63;;;94.33;;
19101;SDS011;9683;49.028;12.064;2024-02-14T12:00:46;635.33;;;119.37;;
19101;SDS011;9683;49.028;12.064;2024-02-14T12:03:15;587.50;;;95.60;;
19101;SDS011;9683;49.028;12.064;2024-02-14T12:05:42;429.47;;;41.77;;
19101;SDS011;9683;49.028;12.064;2024-02-14T12:08:10;614.07;;;108.30;;
19101;SDS011;9683;49.028;12.064;2024-02-14T12:10:36;627.00;;;114.53;;
19101;SDS011;9683;49.028;12.064;2024-02-14T12:13:07;650.80;;;117.73;;
19101;SDS011;9683;49.028;12.064;2024-02-14T12:15:37;635.20;;;115.50;;
19101;SDS011;9683;49.028;12.064;2024-02-14T12:18:03;650.37;;;119.10;;
19101;SDS011;9683;49.028;12.064;2024-02-14T12:20:30;620.33;;;110.07;;
19101;SDS011;9683;49.028;12.064;2024-02-14T12:22:57;633.70;;;111.33;;
19101;SDS011;9683;49.028;12.064;2024-02-14T12:25:26;653.20;;;120.17;;
19101;SDS011;9683;49.028;12.064;2024-02-14T12:27:52;644.80;;;118.60;;
19101;SDS011;9683;49.028;12.064;2024-02-14T12:30:19;664.57;;;124.33;;
19101;SDS011;9683;49.028;12.064;2024-02-14T12:32:45;653.23;;;123.27;;
19101;SDS011;9683;49.028;12.064;2024-02-14T12:35:11;609.83;;;109.33;;
19101;SDS011;9683;49.028;12.064;2024-02-14T12:37:37;637.37;;;120.03;;
19101;SDS011;9683;49.028;12.064;2024-02-14T12:40:04;634.77;;;114.87;;
19101;SDS011;9683;49.028;12.064;2024-02-14T12:42:32;620.13;;;116.27;;
19101;SDS011;9683;49.028;12.064;2024-02-14T12:44:59;585.43;;;107.27;;
19101;SDS011;9683;49.028;12.064;2024-02-14T12:47:25;587.17;;;100.73;;
19101;SDS011;9683;49.028;12.064;2024-02-14T12:49:56;566.40;;;88.90;;
19101;SDS011;9683;49.028;12.064;2024-02-14T12:52:24;558.57;;;86.00;;
19101;SDS011;9683;49.028;12.064;2024-02-14T12:54:50;594.93;;;94.00;;
19101;SDS011;9683;49.028;12.064;2024-02-14T12:57:17;389.30;;;23.50;;
19101;SDS011;9683;49.028;12.064;2024-02-14T12:59:47;377.03;;;23.27;;
19101;SDS011;9683;49.028;12.064;2024-02-14T13:02:13;380.80;;;23.50;;
19101;SDS011;9683;49.028;12.064;2024-02-14T13:04:40;343.40;;;20.70;;
19101;SDS011;9683;49.028;12.064;2024-02-14T13:07:06;316.33;;;19.33;;
19101;SDS011;9683;49.028;12.064;2024-02-14T13:09:34;400.47;;;25.60;;
19101;SDS011;9683;49.028;12.064;2024-02-14T13:12:00;396.70;;;25.07;;
19101;SDS011;9683;49.028;12.064;2024-02-14T13:14:26;366.97;;;22.60;;
19101;SDS011;9683;49.028;12.064;2024-02-14T13:16:57;353.63;;;22.50;;
19101;SDS011;9683;49.028;12.064;2024-02-14T13:19:25;314.07;;;19.60;;
19101;SDS011;9683;49.028;12.064;2024-02-14T13:21:51;339.83;;;20.67;;
19101;SDS011;9683;49.028;12.064;2024-02-14T13:24:17;368.40;;;23.13;;
19101;SDS011;9683;49.028;12.064;2024-02-14T13:26:44;352.57;;;21.73;;
19101;SDS011;9683;49.028;12.064;2024-02-14T13:29:10;363.27;;;21.83;;
19101;SDS011;9683;49.028;12.064;2024-02-14T13:31:37;372.67;;;21.93;;
19101;SDS011;9683;49.028;12.064;2024-02-14T13:34:04;373.37;;;23.60;;
19101;SDS011;9683;49.028;12.064;2024-02-14T13:36:31;359.57;;;23.53;;
19101;SDS011;9683;49.028;12.064;2024-02-14T13:38:57;438.63;;;30.40;;
19101;SDS011;9683;49.028;12.064;2024-02-14T13:41:25;372.87;;;22.93;;
19101;SDS011;9683;49.028;12.064;2024-02-14T13:43:52;352.07;;;22.40;;
19101;SDS011;9683;49.028;12.064;2024-02-14T13:46:18;349.13;;;20.60;;
19101;SDS011;9683;49.028;12.064;2024-02-14T13:48:44;367.83;;;22.80;;
19101;SDS011;9683;49.028;12.064;2024-02-14T13:51:12;379.20;;;23.77;;
19101;SDS011;9683;49.028;12.064;2024-02-14T13:53:38;309.67;;;19.07;;
19101;SDS011;9683;49.028;12.064;2024-02-14T13:56:05;349.67;;;20.10;;
19101;SDS011;9683;49.028;12.064;2024-02-14T13:58:32;349.30;;;21.50;;
19101;SDS011;9683;49.028;12.064;2024-02-14T14:00:58;482.77;;;31.33;;
19101;SDS011;9683;49.028;12.064;2024-02-14T14:03:25;429.30;;;27.23;;
19101;SDS011;9683;49.028;12.064;2024-02-14T14:05:52;436.93;;;27.10;;
19101;SDS011;9683;49.028;12.064;2024-02-14T14:08:20;377.70;;;23.07;;